Time;durP1;ratioP1;P1;durP2;ratioP2;P2;SDS_P1;SDS_P2;PMS_P1;PMS_P2;Temp;Humidity;BMP_temperature;BMP_pressure;BME280_temperature;BME280_humidity;BME280_pressure;Samples;Min_cycle;Max_cycle;Signal;HPM_P1;HPM_P2
2022/03/20 00:01:02;;;;;;;12.20;4.73;;;;;;;;;;6155986;23;20183;-88
2022/03/20 00:03:34;;;;;;;5.47;4.37;;;;;;;;;;6155112;23;20195;-87
2022/03/20 00:06:03;;;;;;;5.73;4.00;;;;;;;;;;6155180;23;20617;-87
2022/03/20 00:08:32;;;;;;;6.00;4.83;;;;;;;;;;6155480;23;20272;-87
2022/03/20 00:11:01;;;;;;;3.93;3.27;;;;;;;;;;6156644;23;20167;-87
2022/03/20 00:13:30;;;;;;;4.70;3.67;;;;;;;;;;6155599;23;20271;-87
2022/03/20 00:15:59;;;;;;;5.57;4.93;;;;;;;;;;6155241;23;20205;-87
2022/03/20 00:18:28;;;;;;;6.73;5.53;;;;;;;;;;6156319;23;20497;-87
2022/03/20 00:20:59;;;;;;;5.33;4.83;;;;;;;;;;6155204;23;20264;-87
2022/03/20 00:23:27;;;;;;;6.13;4.20;;;;;;;;;;6155196;23;20270;-87
2022/03/20 00:25:56;;;;;;;6.50;5.83;;;;;;;;;;6155392;23;20227;-87
2022/03/20 00:28:26;;;;;;;8.50;5.90;;;;;;;;;;6155341;23;20181;-87
2022/03/20 00:30:55;;;;;;;5.03;4.40;;;;;;;;;;6155447;23;20187;-87
2022/03/20 00:33:29;;;;;;;4.63;3.53;;;;;;;;;;6156632;23;20164;-87
2022/03/20 00:35:59;;;;;;;5.70;5.10;;;;;;;;;;6154878;23;20176;-87
2022/03/20 00:38:27;;;;;;;5.20;4.47;;;;;;;;;;6154791;23;20167;-87
2022/03/20 00:40:56;;;;;;;6.23;5.63;;;;;;;;;;6154379;23;20263;-87
2022/03/20 00:43:25;;;;;;;7.10;5.80;;;;;;;;;;6154950;23;20231;-86
2022/03/20 00:45:53;;;;;;;6.93;5.23;;;;;;;;;;6154949;23;20243;-86
2022/03/20 00:48:24;;;;;;;7.23;5.37;;;;;;;;;;6154481;23;20262;-87
2022/03/20 00:50:52;;;;;;;6.97;5.67;;;;;;;;;;6154330;23;20244;-87
2022/03/20 00:53:22;;;;;;;6.03;4.83;;;;;;;;;;6156350;23;20200;-87
2022/03/20 00:55:51;;;;;;;6.37;5.50;;;;;;;;;;6155179;23;20176;-87
2022/03/20 00:58:20;;;;;;;3.87;3.57;;;;;;;;;;6154908;23;20224;-87
2022/03/20 01:00:50;;;;;;;5.03;4.60;;;;;;;;;;6154977;23;20176;-87
2022/03/20 01:03:18;;;;;;;6.47;5.63;;;;;;;;;;6154503;23;20247;-87
2022/03/20 01:05:47;;;;;;;5.53;4.93;;;;;;;;;;6154818;23;20226;-87
2022/03/20 01:08:15;;;;;;;4.80;4.00;;;;;;;;;;6154686;23;20223;-87
2022/03/20 01:10:45;;;;;;;6.93;6.20;;;;;;;;;;6154781;23;20262;-87
2022/03/20 01:13:14;;;;;;;6.97;5.30;;;;;;;;;;6154254;23;20186;-87
2022/03/20 01:15:42;;;;;;;11.17;6.93;;;;;;;;;;6154693;23;20178;-87
2022/03/20 01:18:11;;;;;;;3.63;3.33;;;;;;;;;;6154209;23;20172;-87
2022/03/20 01:20:39;;;;;;;4.97;3.60;;;;;;;;;;6154642;23;20176;-88
2022/03/20 01:23:08;;;;;;;8.13;5.93;;;;;;;;;;6154133;23;20173;-87
2022/03/20 01:25:37;;;;;;;3.87;3.23;;;;;;;;;;6154410;23;20183;-88
2022/03/20 01:28:07;;;;;;;6.90;5.97;;;;;;;;;;6156237;23;20212;-87
2022/03/20 01:30:35;;;;;;;6.27;5.63;;;;;;;;;;6154621;23;20226;-87
2022/03/20 01:33:04;;;;;;;7.40;5.50;;;;;;;;;;6156388;23;20204;-87
2022/03/20 01:35:34;;;;;;;7.60;5.00;;;;;;;;;;6155562;23;20332;-87
2022/03/20 01:38:02;;;;;;;8.83;5.83;;;;;;;;;;6154585;23;20178;-87
2022/03/20 01:40:31;;;;;;;6.67;4.70;;;;;;;;;;6154442;23;20223;-87
2022/03/20 01:43:00;;;;;;;4.00;3.60;;;;;;;;;;6154806;23;20211;-87
2022/03/20 01:45:30;;;;;;;7.40;5.43;;;;;;;;;;6154159;23;20176;-87
2022/03/20 01:47:58;;;;;;;4.60;3.93;;;;;;;;;;6154816;23;20202;-87
2022/03/20 01:50:28;;;;;;;5.70;4.87;;;;;;;;;;6154889;23;20230;-87
2022/03/20 01:52:57;;;;;;;5.17;3.80;;;;;;;;;;6156603;23;20186;-87
2022/03/20 01:55:28;;;;;;;8.10;4.73;;;;;;;;;;6156613;23;20179;-87
2022/03/20 01:57:57;;;;;;;9.53;7.37;;;;;;;;;;6156888;23;20204;-87
2022/03/20 02:00:26;;;;;;;5.07;3.77;;;;;;;;;;6157879;23;20187;-87
2022/03/20 02:02:56;;;;;;;11.23;5.50;;;;;;;;;;6156167;23;20183;-87
2022/03/20 02:05:26;;;;;;;4.23;3.50;;;;;;;;;;6156440;23;20175;-87
2022/03/20 02:07:55;;;;;;;4.97;3.80;;;;;;;;;;6156797;23;20202;-87
2022/03/20 02:10:35;;;;;;;4.80;4.33;;;;;;;;;;6156498;23;20183;-87
2022/03/20 02:13:04;;;;;;;5.97;4.67;;;;;;;;;;6156499;23;20176;-87
2022/03/20 02:15:32;;;;;;;6.97;6.27;;;;;;;;;;6156484;23;20184;-86
2022/03/20 02:18:02;;;;;;;8.30;4.97;;;;;;;;;;6156301;23;20202;-86
2022/03/20 02:20:31;;;;;;;4.43;3.97;;;;;;;;;;6156156;23;20210;-87
2022/03/20 02:23:01;;;;;;;7.57;4.00;;;;;;;;;;6157159;23;20204;-87
2022/03/20 02:25:29;;;;;;;5.67;4.47;;;;;;;;;;6156650;23;20263;-87
2022/03/20 02:27:58;;;;;;;3.90;3.60;;;;;;;;;;6156153;23;20280;-87
2022/03/20 02:30:30;;;;;;;6.70;4.50;;;;;;;;;;6156194;23;20230;-87
2022/03/20 02:32:59;;;;;;;7.03;5.87;;;;;;;;;;6156966;23;20179;-87
2022/03/20 02:35:28;;;;;;;5.50;4.97;;;;;;;;;;6156539;23;20187;-87
2022/03/20 02:37:56;;;;;;;5.47;4.97;;;;;;;;;;6156412;23;20201;-87
2022/03/20 02:40:26;;;;;;;9.90;4.00;;;;;;;;;;6156190;23;20235;-87
2022/03/20 02:42:55;;;;;;;7.83;5.80;;;;;;;;;;6156165;23;20176;-87
2022/03/20 02:45:28;;;;;;;7.17;6.47;;;;;;;;;;6155889;23;20180;-87
2022/03/20 02:47:57;;;;;;;5.60;4.97;;;;;;;;;;6156131;23;20223;-87
2022/03/20 02:50:27;;;;;;;6.60;5.63;;;;;;;;;;6156393;23;20175;-88
2022/03/20 02:52:58;;;;;;;6.00;4.53;;;;;;;;;;6156936;23;20191;-87
2022/03/20 02:55:29;;;;;;;6.77;5.17;;;;;;;;;;6156449;23;20175;-87
2022/03/20 02:57:59;;;;;;;8.23;4.57;;;;;;;;;;6156234;23;20180;-88
2022/03/20 03:00:29;;;;;;;4.47;3.80;;;;;;;;;;6156141;23;20188;-87
2022/03/20 03:02:58;;;;;;;8.20;5.97;;;;;;;;;;6155865;23;20183;-87
2022/03/20 03:05:28;;;;;;;7.10;4.30;;;;;;;;;;6156187;23;20175;-87
2022/03/20 03:10:57;;;;;;;5.30;4.80;;;;;;;;;;6155380;23;20211;-87
2022/03/20 03:13:28;;;;;;;10.33;7.53;;;;;;;;;;6156123;23;20202;-87
2022/03/20 03:15:57;;;;;;;7.33;5.47;;;;;;;;;;6156286;23;20208;-87
2022/03/20 03:18:25;;;;;;;6.63;5.13;;;;;;;;;;6156067;23;20179;-87
2022/03/20 03:20:54;;;;;;;8.13;7.17;;;;;;;;;;6156102;23;20177;-87
2022/03/20 03:23:24;;;;;;;9.00;5.07;;;;;;;;;;6156477;23;20186;-87
2022/03/20 03:25:55;;;;;;;11.50;7.20;;;;;;;;;;6156711;23;20234;-87
2022/03/20 03:28:28;;;;;;;6.03;4.73;;;;;;;;;;6156435;23;20230;-87
2022/03/20 03:30:58;;;;;;;8.67;7.63;;;;;;;;;;6157736;23;20176;-88
2022/03/20 03:33:27;;;;;;;12.57;10.40;;;;;;;;;;6157666;23;20164;-87
2022/03/20 03:35:56;;;;;;;13.07;9.23;;;;;;;;;;6156252;23;20186;-87
2022/03/20 03:38:26;;;;;;;9.13;7.23;;;;;;;;;;6155319;23;20173;-87
2022/03/20 03:40:56;;;;;;;18.80;7.07;;;;;;;;;;6155399;23;20211;-88
2022/03/20 03:43:25;;;;;;;13.23;8.63;;;;;;;;;;6155622;23;20203;-87
2022/03/20 03:45:54;;;;;;;7.10;6.40;;;;;;;;;;6155994;23;20219;-87
2022/03/20 03:48:22;;;;;;;9.37;7.70;;;;;;;;;;6155114;23;20196;-87
2022/03/20 03:50:54;;;;;;;9.57;8.57;;;;;;;;;;6155779;23;20294;-87
2022/03/20 03:53:23;;;;;;;11.47;7.03;;;;;;;;;;6155682;23;20183;-87
2022/03/20 03:55:51;;;;;;;11.40;8.57;;;;;;;;;;6155590;23;20176;-87
2022/03/20 03:58:21;;;;;;;10.47;7.93;;;;;;;;;;6155242;23;20172;-88
2022/03/20 04:00:50;;;;;;;7.00;5.50;;;;;;;;;;6156742;23;20221;-87
2022/03/20 04:03:19;;;;;;;14.80;10.27;;;;;;;;;;6155473;23;20227;-87
2022/03/20 04:05:47;;;;;;;11.97;8.23;;;;;;;;;;6155303;23;20282;-87
2022/03/20 04:08:16;;;;;;;9.03;8.17;;;;;;;;;;6154854;23;20262;-87
2022/03/20 04:10:48;;;;;;;10.87;7.53;;;;;;;;;;6155670;23;20211;-85
2022/03/20 04:13:18;;;;;;;7.57;6.50;;;;;;;;;;6154729;23;20227;-87
2022/03/20 04:15:49;;;;;;;14.20;11.83;;;;;;;;;;6155291;23;20180;-86
2022/03/20 04:18:18;;;;;;;11.57;9.33;;;;;;;;;;6155336;23;20199;-87
2022/03/20 04:20:51;;;;;;;10.07;8.17;;;;;;;;;;6154988;23;20172;-86
2022/03/20 04:26:06;;;;;;;7.87;6.50;;;;;;;;;;6154979;23;20270;-86
2022/03/20 04:28:34;;;;;;;8.77;7.87;;;;;;;;;;6154787;23;20204;-87
2022/03/20 04:31:04;;;;;;;12.97;9.93;;;;;;;;;;6155254;23;20179;-87
2022/03/20 04:33:33;;;;;;;13.27;10.10;;;;;;;;;;6155364;23;20187;-87
2022/03/20 04:36:01;;;;;;;13.43;10.20;;;;;;;;;;6155119;23;20258;-87
2022/03/20 04:38:30;;;;;;;12.83;10.63;;;;;;;;;;6155385;23;20268;-87
2022/03/20 04:40:59;;;;;;;13.43;10.13;;;;;;;;;;6181283;23;20285;-87
2022/03/20 04:43:28;;;;;;;11.93;10.57;;;;;;;;;;6160036;23;20179;-87
2022/03/20 04:45:56;;;;;;;5.33;3.27;;;;;;;;;;6159530;23;20202;-87
2022/03/20 04:59:31;;;;;;;14.30;9.10;;;;;;;;;;6159512;23;20179;-86
2022/03/20 05:02:00;;;;;;;7.43;5.67;;;;;;;;;;6159649;23;20183;-87
2022/03/20 05:04:30;;;;;;;11.67;8.73;;;;;;;;;;6159269;23;20195;-87
2022/03/20 05:06:59;;;;;;;14.47;9.43;;;;;;;;;;6159579;23;20171;-87
2022/03/20 05:14:59;;;;;;;11.67;8.03;;;;;;;;;;6159790;23;20175;-87
2022/03/20 05:17:28;;;;;;;9.03;7.50;;;;;;;;;;6185868;23;20171;-86
2022/03/20 05:19:58;;;;;;;7.90;6.83;;;;;;;;;;6159611;23;20177;-86
2022/03/20 05:22:26;;;;;;;7.37;6.67;;;;;;;;;;6159400;23;20259;-86
2022/03/20 05:24:55;;;;;;;1.57;1.57;;;;;;;;;;6159312;23;20175;-87
2022/03/20 05:27:23;;;;;;;7.33;6.13;;;;;;;;;;6159807;23;20181;-87
2022/03/20 05:29:52;;;;;;;13.20;7.73;;;;;;;;;;6185668;23;20197;-87
2022/03/20 05:32:21;;;;;;;9.47;8.43;;;;;;;;;;6159728;23;20242;-87
2022/03/20 05:34:50;;;;;;;10.23;8.63;;;;;;;;;;6159078;23;20262;-87
2022/03/20 05:37:20;;;;;;;9.57;7.23;;;;;;;;;;6159631;23;20186;-87
2022/03/20 05:39:48;;;;;;;10.47;6.63;;;;;;;;;;6159347;23;20203;-86
2022/03/20 05:42:17;;;;;;;10.10;8.27;;;;;;;;;;6159709;23;20178;-87
2022/03/20 05:44:46;;;;;;;12.30;9.53;;;;;;;;;;6159410;23;20207;-87
2022/03/20 05:47:15;;;;;;;8.33;6.47;;;;;;;;;;6185707;23;20167;-87
2022/03/20 05:49:44;;;;;;;7.70;5.20;;;;;;;;;;6159239;23;20219;-87
2022/03/20 05:52:13;;;;;;;7.03;6.03;;;;;;;;;;6184655;23;20282;-87
2022/03/20 05:54:43;;;;;;;11.53;8.30;;;;;;;;;;6159237;23;20266;-87
2022/03/20 05:59:58;;;;;;;10.90;8.77;;;;;;;;;;6159524;23;20239;-87
2022/03/20 06:02:27;;;;;;;11.07;8.57;;;;;;;;;;6159058;23;20175;-87
2022/03/20 06:04:55;;;;;;;11.93;8.30;;;;;;;;;;6159208;23;20371;-87
2022/03/20 06:07:24;;;;;;;10.47;8.23;;;;;;;;;;6184225;23;20180;-88
2022/03/20 06:09:54;;;;;;;13.20;8.03;;;;;;;;;;6159117;23;20206;-87
2022/03/20 06:12:22;;;;;;;10.97;8.30;;;;;;;;;;6159400;23;20186;-87
2022/03/20 06:14:51;;;;;;;8.20;5.33;;;;;;;;;;6159823;23;20206;-87
2022/03/20 06:17:20;;;;;;;8.73;7.27;;;;;;;;;;6159936;23;20175;-87
2022/03/20 06:19:54;;;;;;;10.23;7.67;;;;;;;;;;6159601;23;20171;-86
2022/03/20 06:22:23;;;;;;;15.63;9.20;;;;;;;;;;6159292;23;20258;-87
2022/03/20 06:24:53;;;;;;;5.23;4.73;;;;;;;;;;6185589;23;20168;-87
2022/03/20 06:27:22;;;;;;;12.27;10.93;;;;;;;;;;6160023;23;20179;-87
2022/03/20 06:29:50;;;;;;;7.97;6.63;;;;;;;;;;6159558;23;20209;-87
2022/03/20 06:32:18;;;;;;;9.63;8.73;;;;;;;;;;6186164;23;20171;-86
2022/03/20 06:34:47;;;;;;;8.80;7.33;;;;;;;;;;6159417;23;20179;-87
2022/03/20 06:37:16;;;;;;;9.13;8.23;;;;;;;;;;6160236;23;20179;-87
2022/03/20 06:39:44;;;;;;;12.33;7.20;;;;;;;;;;6187020;23;20195;-87
2022/03/20 06:42:14;;;;;;;10.60;8.60;;;;;;;;;;6187338;23;20171;-87
2022/03/20 06:44:43;;;;;;;14.13;11.53;;;;;;;;;;6161508;23;20258;-87
2022/03/20 06:47:11;;;;;;;11.60;9.17;;;;;;;;;;6161704;23;20218;-87
2022/03/20 06:49:40;;;;;;;10.40;9.10;;;;;;;;;;6161173;23;20253;-87
2022/03/20 06:52:08;;;;;;;11.07;9.33;;;;;;;;;;6160864;23;20175;-85
2022/03/20 06:54:37;;;;;;;10.77;8.50;;;;;;;;;;6160627;23;20179;-87
2022/03/20 06:57:05;;;;;;;15.27;7.83;;;;;;;;;;6186686;23;20204;-87
2022/03/20 06:59:35;;;;;;;11.83;9.37;;;;;;;;;;6160756;23;20175;-87
2022/03/20 07:02:05;;;;;;;6.57;5.83;;;;;;;;;;6160425;23;20209;-87
2022/03/20 07:04:33;;;;;;;11.03;9.07;;;;;;;;;;6160329;23;20202;-86
2022/03/20 07:07:02;;;;;;;12.20;10.30;;;;;;;;;;6160760;23;20203;-87
2022/03/20 07:09:30;;;;;;;15.17;10.33;;;;;;;;;;6187103;23;20167;-87
2022/03/20 07:11:59;;;;;;;12.23;8.90;;;;;;;;;;6160260;23;20206;-86
2022/03/20 07:14:27;;;;;;;14.77;10.90;;;;;;;;;;6160785;23;20179;-87
2022/03/20 07:16:59;;;;;;;12.60;10.37;;;;;;;;;;6160860;23;20202;-87
2022/03/20 07:19:28;;;;;;;9.80;7.77;;;;;;;;;;6160672;23;20291;-87
2022/03/20 07:21:57;;;;;;;9.40;7.57;;;;;;;;;;6160773;23;20175;-87
2022/03/20 07:24:25;;;;;;;12.70;11.33;;;;;;;;;;6160887;23;20179;-87
2022/03/20 07:29:43;;;;;;;13.13;10.87;;;;;;;;;;6160517;23;20198;-87
2022/03/20 07:32:12;;;;;;;13.60;11.10;;;;;;;;;;6160224;23;20179;-87
2022/03/20 07:34:43;;;;;;;12.53;10.83;;;;;;;;;;6160427;23;20187;-87
2022/03/20 07:37:16;;;;;;;14.27;12.23;;;;;;;;;;6160975;23;20179;-87
2022/03/20 07:39:45;;;;;;;14.83;13.20;;;;;;;;;;6160696;23;20215;-86
2022/03/20 07:42:18;;;;;;;8.73;7.93;;;;;;;;;;6160670;23;20234;-87
2022/03/20 07:44:46;;;;;;;20.00;14.83;;;;;;;;;;6160427;23;20171;-87
2022/03/20 07:47:20;;;;;;;18.93;13.67;;;;;;;;;;6160612;23;20179;-87
2022/03/20 07:49:49;;;;;;;16.77;15.13;;;;;;;;;;6160991;23;20270;-87
2022/03/20 07:52:18;;;;;;;16.50;12.30;;;;;;;;;;6160035;23;20281;-87
2022/03/20 07:54:46;;;;;;;13.43;9.77;;;;;;;;;;6160331;23;20271;-86
2022/03/20 07:57:16;;;;;;;14.90;12.17;;;;;;;;;;6160587;23;20266;-86
2022/03/20 07:59:45;;;;;;;13.67;12.07;;;;;;;;;;6160305;23;20240;-87
2022/03/20 08:02:14;;;;;;;14.63;11.33;;;;;;;;;;6160485;23;20171;-87
2022/03/20 08:04:44;;;;;;;16.03;12.83;;;;;;;;;;6160071;23;20253;-87
2022/03/20 08:07:12;;;;;;;11.97;10.73;;;;;;;;;;6159984;23;20179;-87
2022/03/20 08:09:41;;;;;;;13.53;10.63;;;;;;;;;;6159665;23;20238;-87
2022/03/20 08:12:10;;;;;;;10.10;9.10;;;;;;;;;;6160138;23;20198;-87
2022/03/20 08:14:58;;;;;;;15.90;12.83;;;;;;;;;;6160376;23;20181;-87
2022/03/20 08:17:29;;;;;;;17.40;12.37;;;;;;;;;;6160008;23;20239;-87
2022/03/20 08:20:00;;;;;;;16.70;13.27;;;;;;;;;;6186679;23;20168;-87
2022/03/20 08:22:29;;;;;;;20.37;12.90;;;;;;;;;;6160261;23;20167;-87
2022/03/20 08:24:57;;;;;;;12.43;10.37;;;;;;;;;;6160565;23;20243;-87
2022/03/20 08:27:26;;;;;;;16.37;13.43;;;;;;;;;;6159811;23;20184;-86
2022/03/20 08:29:55;;;;;;;12.57;10.70;;;;;;;;;;6160278;23;20263;-87
2022/03/20 08:32:24;;;;;;;14.57;12.03;;;;;;;;;;6160439;23;20195;-86
2022/03/20 08:34:53;;;;;;;16.63;13.17;;;;;;;;;;6160346;23;20182;-86
2022/03/20 08:37:22;;;;;;;18.10;13.50;;;;;;;;;;6159693;23;20182;-86
2022/03/20 08:39:51;;;;;;;18.37;14.43;;;;;;;;;;6159925;23;20245;-86
2022/03/20 08:42:19;;;;;;;16.77;14.93;;;;;;;;;;6159906;23;20181;-86
2022/03/20 08:44:50;;;;;;;13.63;11.83;;;;;;;;;;6159795;23;20184;-86
2022/03/20 08:47:19;;;;;;;13.53;12.13;;;;;;;;;;6159422;23;20181;-87
2022/03/20 08:49:48;;;;;;;17.20;13.23;;;;;;;;;;6159959;23;20186;-87
2022/03/20 08:52:19;;;;;;;12.20;10.60;;;;;;;;;;6159706;23;20218;-87
2022/03/20 08:54:48;;;;;;;13.73;12.30;;;;;;;;;;6161349;23;20184;-89
2022/03/20 08:57:17;;;;;;;11.17;8.97;;;;;;;;;;6161261;23;20254;-89
2022/03/20 08:59:46;;;;;;;17.33;12.97;;;;;;;;;;6161237;23;20177;-90
2022/03/20 09:02:14;;;;;;;18.27;16.27;;;;;;;;;;6187443;23;20172;-89
2022/03/20 09:04:43;;;;;;;15.47;13.43;;;;;;;;;;6160599;23;20196;-89
2022/03/20 09:07:11;;;;;;;19.70;14.63;;;;;;;;;;6161094;23;20215;-90
2022/03/20 09:09:40;;;;;;;17.70;13.00;;;;;;;;;;6161447;23;20183;-89
2022/03/20 09:12:11;;;;;;;16.00;12.53;;;;;;;;;;6161322;23;20198;-89
2022/03/20 09:14:40;;;;;;;15.23;13.57;;;;;;;;;;6161063;23;20181;-89
2022/03/20 09:19:55;;;;;;;15.60;13.97;;;;;;;;;;6161214;23;20182;-90
2022/03/20 09:22:25;;;;;;;18.63;15.00;;;;;;;;;;6187366;23;20471;-89
2022/03/20 09:24:54;;;;;;;11.60;10.37;;;;;;;;;;6161372;23;20183;-89
2022/03/20 09:27:24;;;;;;;19.33;17.40;;;;;;;;;;6160711;23;20210;-89
2022/03/20 09:29:53;;;;;;;20.60;17.43;;;;;;;;;;6160365;23;20175;-90
2022/03/20 09:32:21;;;;;;;17.50;14.73;;;;;;;;;;6160564;23;20278;-89
2022/03/20 09:34:49;;;;;;;19.53;15.00;;;;;;;;;;6160573;23;20202;-89
2022/03/20 09:37:18;;;;;;;21.47;17.20;;;;;;;;;;6160655;23;20222;-90
2022/03/20 09:39:46;;;;;;;17.23;13.93;;;;;;;;;;6160896;23;20211;-89
2022/03/20 09:42:15;;;;;;;20.30;14.80;;;;;;;;;;6160791;23;20168;-89
2022/03/20 09:44:45;;;;;;;23.63;13.37;;;;;;;;;;6160916;23;20262;-90
2022/03/20 09:47:17;;;;;;;12.40;8.80;;;;;;;;;;6160914;23;20187;-89
2022/03/20 09:49:46;;;;;;;18.37;14.73;;;;;;;;;;6161125;23;20198;-89
2022/03/20 09:52:16;;;;;;;14.63;12.90;;;;;;;;;;6186505;23;20211;-89
2022/03/20 09:54:45;;;;;;;12.03;10.07;;;;;;;;;;6160850;23;20207;-90
2022/03/20 09:57:14;;;;;;;17.00;15.20;;;;;;;;;;6160430;23;20260;-88
2022/03/20 09:59:49;;;;;;;15.90;14.33;;;;;;;;;;6160168;23;20175;-88
2022/03/20 10:02:18;;;;;;;16.03;14.20;;;;;;;;;;6160418;23;20177;-89
2022/03/20 10:04:53;;;;;;;19.00;15.87;;;;;;;;;;6160099;23;20196;-91
2022/03/20 10:07:22;;;;;;;16.07;14.10;;;;;;;;;;6160251;23;20259;-89
2022/03/20 10:10:10;;;;;;;18.93;14.47;;;;;;;;;;6160856;23;20179;-89
2022/03/20 10:12:40;;;;;;;16.03;14.40;;;;;;;;;;6161455;23;20190;-90
2022/03/20 10:15:11;;;;;;;16.80;14.07;;;;;;;;;;6161841;23;20187;-89
2022/03/20 10:17:40;;;;;;;15.27;13.57;;;;;;;;;;6161782;23;20245;-90
2022/03/20 10:20:15;;;;;;;16.17;9.57;;;;;;;;;;6161865;23;20177;-89
2022/03/20 10:22:44;;;;;;;20.10;16.67;;;;;;;;;;6161518;23;20181;-90
2022/03/20 10:25:13;;;;;;;14.43;12.33;;;;;;;;;;6162899;23;20184;-90
2022/03/20 10:27:57;;;;;;;18.73;16.83;;;;;;;;;;6162239;23;20209;-89
2022/03/20 10:30:26;;;;;;;15.10;11.43;;;;;;;;;;6163141;23;20175;-90
2022/03/20 10:32:55;;;;;;;17.57;14.57;;;;;;;;;;6161990;23;20271;-88
2022/03/20 10:35:23;;;;;;;19.43;15.83;;;;;;;;;;6162239;23;20186;-90
2022/03/20 10:37:54;;;;;;;11.83;10.20;;;;;;;;;;6162380;23;20164;-88
2022/03/20 10:40:24;;;;;;;16.20;12.33;;;;;;;;;;6162294;23;20215;-89
2022/03/20 10:43:12;;;;;;;17.00;14.87;;;;;;;;;;6186968;23;20258;-89
2022/03/20 10:45:52;;;;;;;19.10;14.80;;;;;;;;;;6162822;23;20263;-89
2022/03/20 10:48:27;;;;;;;22.73;15.43;;;;;;;;;;6162283;23;20198;-89
2022/03/20 10:50:56;;;;;;;18.90;16.03;;;;;;;;;;6162786;23;20186;-90
2022/03/20 10:53:25;;;;;;;17.23;15.43;;;;;;;;;;6162522;23;20196;-89
2022/03/20 10:55:57;;;;;;;13.33;10.87;;;;;;;;;;6161573;23;20207;-90
2022/03/20 10:58:26;;;;;;;15.40;11.40;;;;;;;;;;6162376;23;20207;-89
2022/03/20 11:00:56;;;;;;;16.43;13.87;;;;;;;;;;6162702;23;20208;-90
2022/03/20 11:03:26;;;;;;;18.73;13.47;;;;;;;;;;6162181;23;20187;-90
2022/03/20 11:05:57;;;;;;;16.27;14.13;;;;;;;;;;6188165;23;20180;-90
2022/03/20 11:08:26;;;;;;;16.70;12.17;;;;;;;;;;6162332;23;20203;-90
2022/03/20 11:10:55;;;;;;;15.63;14.00;;;;;;;;;;6161764;23;20187;-90
2022/03/20 11:13:24;;;;;;;18.00;16.10;;;;;;;;;;6161825;23;20197;-89
2022/03/20 11:15:54;;;;;;;19.90;16.53;;;;;;;;;;6161759;23;20264;-90
2022/03/20 11:18:26;;;;;;;15.67;11.83;;;;;;;;;;6161432;23;20188;-89
2022/03/20 11:20:55;;;;;;;19.10;16.37;;;;;;;;;;6161510;23;20267;-90
2022/03/20 11:23:25;;;;;;;13.00;9.43;;;;;;;;;;6161582;23;20255;-90
2022/03/20 11:25:55;;;;;;;15.43;11.37;;;;;;;;;;6161947;23;20188;-90
2022/03/20 11:28:24;;;;;;;20.00;16.63;;;;;;;;;;6188113;23;20174;-89
2022/03/20 11:30:59;;;;;;;15.80;13.70;;;;;;;;;;6162161;23;20181;-88
2022/03/20 11:33:29;;;;;;;14.60;13.10;;;;;;;;;;6161441;23;20186;-90
2022/03/20 11:36:01;;;;;;;19.07;15.03;;;;;;;;;;6161948;23;20441;-90
2022/03/20 11:38:31;;;;;;;20.20;18.03;;;;;;;;;;6161911;23;20180;-89
2022/03/20 11:41:07;;;;;;;15.67;10.73;;;;;;;;;;6161696;23;20208;-88
2022/03/20 11:43:36;;;;;;;18.97;15.27;;;;;;;;;;6161357;23;20173;-89
2022/03/20 11:46:20;;;;;;;17.53;12.17;;;;;;;;;;6161727;23;20267;-89
2022/03/20 11:49:04;;;;;;;20.17;17.70;;;;;;;;;;6161890;23;20184;-89
2022/03/20 11:52:03;;;;;;;20.33;17.07;;;;;;;;;;6144196;23;20177;-90
2022/03/20 11:54:34;;;;;;;18.80;16.47;;;;;;;;;;6044042;23;20191;-90
2022/03/20 11:57:02;;;;;;;12.17;10.10;;;;;;;;;;6161820;23;20176;-89
2022/03/20 11:59:46;;;;;;;18.07;15.50;;;;;;;;;;6186906;23;20264;-90
2022/03/20 12:02:21;;;;;;;18.37;14.23;;;;;;;;;;6162073;23;20175;-89
2022/03/20 12:04:58;;;;;;;16.43;12.00;;;;;;;;;;6161431;23;20195;-90
2022/03/20 12:07:30;;;;;;;18.53;14.87;;;;;;;;;;6162465;23;20183;-90
2022/03/20 12:10:04;;;;;;;20.57;15.07;;;;;;;;;;6187307;23;20164;-89
2022/03/20 12:12:44;;;;;;;22.30;14.87;;;;;;;;;;6161340;23;20291;-90
2022/03/20 12:15:13;;;;;;;13.77;10.43;;;;;;;;;;6187164;23;20168;-89
2022/03/20 12:18:00;;;;;;;14.17;12.50;;;;;;;;;;6161061;23;20240;-89
2022/03/20 12:20:47;;;;;;;18.43;15.73;;;;;;;;;;6161376;23;20181;-90
2022/03/20 12:23:35;;;;;;;19.17;13.63;;;;;;;;;;6161254;23;20203;-90
2022/03/20 12:26:22;;;;;;;17.00;11.10;;;;;;;;;;6161500;23;20180;-89
2022/03/20 12:28:53;;;;;;;19.87;14.53;;;;;;;;;;6161360;23;20176;-90
2022/03/20 12:31:27;;;;;;;16.00;12.37;;;;;;;;;;6161284;23;20194;-89
2022/03/20 12:34:14;;;;;;;7.20;6.00;;;;;;;;;;6161127;23;20228;-90
2022/03/20 12:36:42;;;;;;;23.20;19.73;;;;;;;;;;6161148;23;20187;-89
2022/03/20 12:39:11;;;;;;;15.53;14.03;;;;;;;;;;6160876;23;20206;-89
2022/03/20 12:41:40;;;;;;;19.00;15.00;;;;;;;;;;6161226;23;20235;-89
2022/03/20 12:44:15;;;;;;;21.03;18.47;;;;;;;;;;6161507;23;20177;-89
2022/03/20 12:46:46;;;;;;;21.93;18.73;;;;;;;;;;6161579;23;20204;-89
2022/03/20 12:49:18;;;;;;;16.83;15.07;;;;;;;;;;6162246;23;20182;-89
2022/03/20 12:51:48;;;;;;;16.70;13.03;;;;;;;;;;6163733;23;20200;-89
2022/03/20 12:54:17;;;;;;;13.80;9.73;;;;;;;;;;6162748;23;20201;-89
2022/03/20 12:56:58;;;;;;;17.90;14.13;;;;;;;;;;6163034;23;20219;-89
2022/03/20 12:59:27;;;;;;;17.67;14.57;;;;;;;;;;6163419;23;20180;-88
2022/03/20 13:01:57;;;;;;;18.33;13.03;;;;;;;;;;6163679;23;20205;-89
2022/03/20 13:04:26;;;;;;;18.60;13.67;;;;;;;;;;6163836;23;20193;-88
2022/03/20 13:06:54;;;;;;;16.97;13.33;;;;;;;;;;6193995;23;20260;-90
2022/03/20 13:09:23;;;;;;;19.47;15.33;;;;;;;;;;6167834;23;20182;-88
2022/03/20 13:11:59;;;;;;;20.30;12.23;;;;;;;;;;6166918;23;20177;-89
2022/03/20 13:14:29;;;;;;;21.90;16.43;;;;;;;;;;6168067;23;20233;-88
2022/03/20 13:16:59;;;;;;;27.53;15.37;;;;;;;;;;6167281;23;20178;-89
2022/03/20 13:19:32;;;;;;;23.13;18.40;;;;;;;;;;6161960;23;20181;-89
2022/03/20 13:22:05;;;;;;;18.10;13.50;;;;;;;;;;6161998;23;20179;-89
2022/03/20 13:24:34;;;;;;;24.00;17.47;;;;;;;;;;6187969;23;20177;-89
2022/03/20 13:27:04;;;;;;;22.53;18.10;;;;;;;;;;6160882;23;20205;-88
2022/03/20 13:29:34;;;;;;;17.07;12.87;;;;;;;;;;6160753;23;20182;-89
2022/03/20 13:32:03;;;;;;;20.00;17.50;;;;;;;;;;6160936;23;20175;-88
2022/03/20 13:34:32;;;;;;;16.83;12.67;;;;;;;;;;6187310;23;20249;-89
2022/03/20 13:37:08;;;;;;;16.60;13.93;;;;;;;;;;6161202;23;20175;-89
2022/03/20 13:39:37;;;;;;;13.07;9.70;;;;;;;;;;6161139;23;20179;-89
2022/03/20 13:42:16;;;;;;;10.03;8.03;;;;;;;;;;6131219;23;20178;-89
2022/03/20 13:44:47;;;;;;;28.00;25.03;;;;;;;;;;6131509;23;20204;-88
2022/03/20 13:47:16;;;;;;;6.07;5.53;;;;;;;;;;6133339;23;20180;-89
2022/03/20 13:49:45;;;;;;;15.63;10.40;;;;;;;;;;6133755;23;20181;-89
2022/03/20 13:52:20;;;;;;;18.37;14.63;;;;;;;;;;6132990;23;20179;-89
2022/03/20 13:55:06;;;;;;;19.33;16.50;;;;;;;;;;6132866;23;20201;-90
2022/03/20 13:57:35;;;;;;;12.60;8.83;;;;;;;;;;6133022;23;20175;-90
2022/03/20 14:00:10;;;;;;;23.27;17.67;;;;;;;;;;6158961;23;20246;-89
2022/03/20 14:02:40;;;;;;;25.33;20.20;;;;;;;;;;6133032;23;20252;-90
2022/03/20 14:05:13;;;;;;;19.33;16.00;;;;;;;;;;6159401;23;20215;-90
2022/03/20 14:07:41;;;;;;;25.00;20.60;;;;;;;;;;6133479;23;20262;-90
2022/03/20 14:10:20;;;;;;;25.90;19.80;;;;;;;;;;6133098;23;20194;-89
2022/03/20 14:12:51;;;;;;;23.53;19.07;;;;;;;;;;6132983;23;20189;-90
2022/03/20 14:15:21;;;;;;;14.63;12.93;;;;;;;;;;6157743;23;20209;-90
2022/03/20 14:17:51;;;;;;;27.03;20.83;;;;;;;;;;6132677;23;20213;-89
2022/03/20 14:20:26;;;;;;;9.20;8.27;;;;;;;;;;6158092;23;20190;-89
2022/03/20 14:22:57;;;;;;;27.60;24.67;;;;;;;;;;6157528;23;20201;-88
2022/03/20 14:25:34;;;;;;;28.30;22.03;;;;;;;;;;6132514;23;20177;-89
2022/03/20 14:28:03;;;;;;;27.30;24.47;;;;;;;;;;6132538;23;20184;-89
2022/03/20 14:41:54;;;;;;;22.83;18.07;;;;;;;;;;6081107;23;20209;-89
2022/03/20 14:44:23;;;;;;;24.47;19.20;;;;;;;;;;6157476;23;20263;-89
2022/03/20 14:46:55;;;;;;;25.13;20.70;;;;;;;;;;6157074;23;20215;-89
2022/03/20 14:49:25;;;;;;;27.07;22.13;;;;;;;;;;6157322;23;20258;-89
2022/03/20 14:51:55;;;;;;;26.17;23.27;;;;;;;;;;6132242;23;20203;-89
2022/03/20 14:54:24;;;;;;;7.73;6.80;;;;;;;;;;6157349;23;20277;-89
2022/03/20 14:56:56;;;;;;;13.10;9.43;;;;;;;;;;6132390;23;20244;-89
2022/03/20 14:59:25;;;;;;;14.13;10.67;;;;;;;;;;6132717;23;20203;-89
2022/03/20 15:01:55;;;;;;;13.23;8.27;;;;;;;;;;6132826;23;20205;-89
2022/03/20 15:04:23;;;;;;;21.60;15.40;;;;;;;;;;6158064;23;20215;-90
2022/03/20 15:06:54;;;;;;;19.80;15.20;;;;;;;;;;6157291;23;20178;-90
2022/03/20 15:12:10;;;;;;;14.17;10.63;;;;;;;;;;6132480;23;20240;-90
2022/03/20 15:14:38;;;;;;;31.57;25.63;;;;;;;;;;6132503;23;20191;-89
2022/03/20 15:17:08;;;;;;;19.20;10.83;;;;;;;;;;6156735;23;20238;-89
2022/03/20 15:19:37;;;;;;;21.17;16.80;;;;;;;;;;6132737;23;20175;-89
2022/03/20 15:22:07;;;;;;;11.07;8.43;;;;;;;;;;6132663;23;20185;-90
2022/03/20 15:24:37;;;;;;;15.17;9.80;;;;;;;;;;6132404;23;20182;-90
2022/03/20 15:27:06;;;;;;;24.00;17.60;;;;;;;;;;6132836;23;20199;-89
2022/03/20 15:29:34;;;;;;;20.40;16.13;;;;;;;;;;6157187;23;20210;-89
2022/03/20 15:32:04;;;;;;;24.70;15.33;;;;;;;;;;6157965;23;20174;-90